Flight Track Log - Related Links

Times and Time Zones

All times are in EDT time to prevent confusion due to time zone crossing. See the CSN3225 flight status page for this flight to view local times or setup timezone preferences in your user account.

Time Position Orientation Groundspeed Altitude Reporting Facility
EDT Latitude Longitude Course Direction KTS MPH feet Rate Location/Type
Thu 07:26:00 AM 22.7369 113.7751 341° North  Level Estimated
Thu 07:27:00 AM 22.8343 113.7377 341° North  Level Estimated
Thu 07:28:00 AM 22.9317 113.7003 341° North  Level Estimated
Thu 07:29:00 AM 23.0276 113.6634 340° North  Level Estimated
Thu 07:30:00 AM 23.1242 113.6261 340° North  Level Estimated
Thu 07:31:00 AM 23.2208 113.5888 340° North  Level Estimated
Thu 07:32:00 AM 23.3173 113.5515 340° North  Level Estimated
Thu 07:33:00 AM 23.4139 113.5141 340° North  Level Estimated
Thu 07:34:00 AM 23.5053 113.4787 340° North  Level Estimated
Thu 07:35:00 AM 23.5966 113.4432 340° North  Level Estimated
Thu 07:36:00 AM 23.6880 113.4076 340° North  Level Estimated
Thu 07:37:00 AM 23.7793 113.3720 340° North  Level Estimated
Thu 07:38:00 AM 23.8707 113.3364 340° North  Level Estimated
Thu 07:39:00 AM 23.9620 113.3007 340° North  Level Estimated
Thu 07:40:00 AM 24.0533 113.2650 340° North  Level Estimated
Thu 07:41:00 AM 24.1446 113.2292 340° North  Level Estimated
Thu 07:42:00 AM 24.2359 113.1934 340° North  Level Estimated
Thu 07:43:00 AM 24.3272 113.1575 340° North  Level Estimated
Thu 07:44:00 AM 24.4185 113.1215 340° North  Level Estimated
Thu 07:45:00 AM 24.5098 113.0855 340° North  Level Estimated
Thu 07:46:00 AM 24.6010 113.0495 340° North  Level Estimated
Thu 07:47:00 AM 24.6923 113.0134 340° North  Level Estimated
Thu 07:48:00 AM 24.7836 112.9772 340° North  Level Estimated
Thu 07:49:00 AM 24.8748 112.9410 340° North  Level Estimated
Thu 07:50:00 AM 24.9660 112.9048 340° North  Level Estimated
Thu 07:51:00 AM 25.0572 112.8685 340° North  Level Estimated
Thu 07:52:00 AM 25.1485 112.8321 340° North  Level Estimated
Thu 07:53:00 AM 25.2397 112.7957 340° North  Level Estimated
Thu 07:54:00 AM 25.3309 112.7592 340° North  Level Estimated
Thu 07:55:00 AM 25.4221 112.7227 340° North  Level Estimated
Thu 07:56:00 AM 25.5132 112.6861 340° North  Level Estimated
Thu 07:57:00 AM 25.6044 112.6495 340° North  Level Estimated
Thu 07:58:00 AM 25.6956 112.6128 340° North  Level Estimated
Thu 07:59:00 AM 25.7867 112.5760 340° North  Level Estimated
Thu 08:00:00 AM 25.8779 112.5392 340° North  Level Estimated
Thu 08:01:00 AM 25.9690 112.5023 340° North  Level Estimated
Thu 08:02:00 AM 26.0601 112.4654 340° North  Level Estimated
Thu 08:03:00 AM 26.1512 112.4284 340° North  Level Estimated
Thu 08:04:00 AM 26.2423 112.3914 340° North  Level Estimated
Thu 08:05:00 AM 26.3334 112.3543 340° North  Level Estimated
Thu 08:06:00 AM 26.4245 112.3171 340° North  Level Estimated
Thu 08:07:00 AM 26.5156 112.2799 340° North  Level Estimated
Thu 08:08:00 AM 26.6067 112.2426 340° North  Level Estimated
Thu 08:09:00 AM 26.6977 112.2053 340° North  Level Estimated
Thu 08:10:00 AM 26.7888 112.1679 340° North  Level Estimated
Thu 08:11:00 AM 26.8798 112.1305 340° North  Level Estimated
Thu 08:12:00 AM 26.9708 112.0929 340° North  Level Estimated
Thu 08:13:00 AM 27.0618 112.0554 340° North  Level Estimated
Thu 08:14:00 AM 27.1529 112.0177 340° North  Level Estimated
Thu 08:15:00 AM 27.2439 111.9800 340° North  Level Estimated
Thu 08:16:00 AM 27.3349 111.9423 340° North  Level Estimated
Thu 08:17:00 AM 27.4258 111.9045 340° North  Level Estimated
Thu 08:18:00 AM 27.5168 111.8666 340° North  Level Estimated
Thu 08:19:00 AM 27.6077 111.8286 340° North  Level Estimated
Thu 08:20:00 AM 27.6987 111.7906 340° North  Level Estimated
Thu 08:21:00 AM 27.7896 111.7526 340° North  Level Estimated
Thu 08:22:00 AM 27.8806 111.7144 340° North  Level Estimated
Thu 08:23:00 AM 27.9715 111.6762 340° North  Level Estimated
Thu 08:24:00 AM 28.0624 111.6380 340° North  Level Estimated
Thu 08:25:00 AM 28.1533 111.5996 340° North  Level Estimated
Thu 08:26:00 AM 28.2442 111.5612 340° North  Level Estimated
Thu 08:27:00 AM 28.3350 111.5228 340° North  Level Estimated
Thu 08:28:00 AM 28.4259 111.4843 340° North  Level Estimated
Thu 08:29:00 AM 28.5167 111.4457 340° North  Level Estimated
Thu 08:30:00 AM 28.6076 111.4070 340° North  Level Estimated
Thu 08:31:00 AM 28.6984 111.3683 339° North  Level Estimated
Thu 08:32:00 AM 28.7892 111.3295 339° North  Level Estimated
Thu 08:33:00 AM 28.8800 111.2906 339° North  Level Estimated
Thu 08:34:00 AM 28.9708 111.2517 339° North  Level Estimated
Thu 08:35:00 AM 29.0676 111.2102 339° North  Level Estimated
Thu 08:36:00 AM 29.1643 111.1685 339° North  Level Estimated
Thu 08:37:00 AM 29.2610 111.1268 339° North  Level Estimated
Thu 08:38:00 AM 29.3577 111.0850 339° North  Level Estimated
Thu 08:39:00 AM 29.4544 111.0432 339° North  Level Estimated
Thu 08:40:00 AM 29.5511 111.0012 339° North  Level Estimated
Thu 08:41:00 AM 29.6477 110.9592 339° North  Level Estimated
Thu 08:42:00 AM 29.7444 110.9171 339° North  Level Estimated
Thu 08:43:00 AM 29.8410 110.8749 339° North  Level Estimated
Thu 08:44:00 AM 29.9376 110.8326 339° North  Level Estimated
Thu 08:45:00 AM 30.0342 110.7902 339° North  Level Estimated
Thu 08:46:00 AM 30.1308 110.7478 339° North  Level Estimated
Thu 08:47:00 AM 30.2274 110.7053 339° North  Level Estimated
Thu 08:48:00 AM 30.3239 110.6627 339° North  Level Estimated
Thu 08:49:00 AM 30.4205 110.6200 339° North  Level Estimated
Thu 08:50:00 AM 30.5170 110.5772 339° North  Level Estimated
Thu 08:51:00 AM 30.6136 110.5343 339° North  Level Estimated
Thu 08:52:00 AM 30.7101 110.4914 339° North  Level Estimated
Thu 08:53:00 AM 30.8066 110.4484 339° North  Level Estimated
Thu 08:54:00 AM 30.9030 110.4053 339° North  Level Estimated
Thu 08:55:00 AM 30.9995 110.3621 339° North  Level Estimated
Thu 08:56:00 AM 31.0960 110.3188 339° North  Level Estimated
Thu 08:57:00 AM 31.1924 110.2754 339° North  Level Estimated
Thu 08:58:00 AM 31.2888 110.2319 339° North  Level Estimated
Thu 08:59:00 AM 31.3852 110.1883 339° North  Level Estimated
Thu 09:00:00 AM 31.4816 110.1447 339° North  Level Estimated
Thu 09:01:00 AM 31.5780 110.1010 339° North  Level Estimated
Thu 09:02:00 AM 31.6744 110.0571 339° North  Level Estimated
Thu 09:03:00 AM 31.7707 110.0132 339° North  Level Estimated
Thu 09:04:00 AM 31.8670 109.9692 339° North  Level Estimated
Thu 09:05:00 AM 31.9634 109.9251 339° North  Level Estimated
Thu 09:06:00 AM 32.0597 109.8809 339° North  Level Estimated
Thu 09:07:00 AM 32.1559 109.8366 339° North  Level Estimated
Thu 09:08:00 AM 32.2522 109.7922 339° North  Level Estimated
Thu 09:09:00 AM 32.3485 109.7478 339° North  Level Estimated
Thu 09:10:00 AM 32.4447 109.7032 339° North  Level Estimated
Thu 09:11:00 AM 32.5409 109.6585 339° North  Level Estimated
Thu 09:12:00 AM 32.6371 109.6138 339° North  Level Estimated
Thu 09:13:00 AM 32.7333 109.5689 339° North  Level Estimated
Thu 09:14:00 AM 32.8295 109.5240 339° North  Level Estimated
Thu 09:15:00 AM 32.9257 109.4789 339° North  Level Estimated
Thu 09:16:00 AM 33.0218 109.4337 339° North  Level Estimated
Thu 09:17:00 AM 33.1180 109.3885 338° Northwest  Level Estimated
Thu 09:18:00 AM 33.2141 109.3432 338° Northwest  Level Estimated
Thu 09:19:00 AM 33.3102 109.2977 338° Northwest  Level Estimated
Thu 09:20:00 AM 33.4062 109.2522 338° Northwest  Level Estimated
Thu 09:21:00 AM 33.5023 109.2065 338° Northwest  Level Estimated
Thu 09:22:00 AM 33.5983 109.1608 338° Northwest  Level Estimated
Thu 09:23:00 AM 33.6944 109.1149 338° Northwest  Level Estimated
Thu 09:24:00 AM 33.7904 109.0689 338° Northwest  Level Estimated
Thu 09:25:00 AM 33.8864 109.0229 338° Northwest  Level Estimated
Thu 09:26:00 AM 33.9824 108.9767 338° Northwest  Level Estimated
Thu 09:27:00 AM 34.0783 108.9305 338° Northwest  Level Estimated
Thu 09:28:00 AM 34.1743 108.8841 338° Northwest  Level Estimated
Thu 09:29:00 AM 34.2702 108.8376 338° Northwest  Level Estimated
Thu 09:30:00 AM 34.3661 108.7910 338° Northwest  Level Estimated
Thu 09:31:00 AM 34.4471 108.7516 338° Northwest  Level Estimated
Thu 09:32:00 AM 34.4471 108.7516 North  Level Estimated
Thu 09:33:00 AM 34.4471 108.7516 North  Level Estimated
Thu 09:34:00 AM 34.4471 108.7516 North  Level Estimated
Thu 09:35:00 AM 34.4471 108.7516 North  Level Estimated
Thu 09:36:00 AM 34.4471 108.7516 North  Level Estimated
Thu 09:37:00 AM 34.4471 108.7516 North  Level Estimated
Thu 09:38:00 AM 34.4471 108.7516 North  Level Estimated

Login

Don't have an account? Register now (free) for customized features, flight alerts, and more!